createdAt,value
2017-04-29T00:01:32.939Z,100424.05
2017-04-29T00:04:04.076Z,100421.95
2017-04-29T00:06:34.566Z,100421.00
2017-04-29T00:09:04.389Z,100425.00
2017-04-29T00:11:35.779Z,100421.78
2017-04-29T00:14:06.553Z,100425.98
2017-04-29T00:16:37.370Z,100425.84
2017-04-29T00:19:08.091Z,100420.12
2017-04-29T00:21:38.811Z,100421.05
2017-04-29T00:24:09.659Z,100427.30
2017-04-29T00:26:40.322Z,100430.52
2017-04-29T00:29:10.501Z,100431.84
2017-04-29T00:31:41.003Z,100438.64
2017-04-29T00:34:11.741Z,100433.03
2017-04-29T00:36:42.620Z,100442.98
2017-04-29T00:39:13.454Z,100436.08
2017-04-29T00:41:43.385Z,100438.33
2017-04-29T00:44:14.211Z,100434.59
2017-04-29T00:46:44.736Z,100437.58
2017-04-29T00:49:15.394Z,100440.83
2017-04-29T00:51:46.355Z,100439.20
2017-04-29T00:54:17.205Z,100436.53
2017-04-29T00:56:48.079Z,100437.70
2017-04-29T00:59:18.740Z,100434.95
2017-04-29T01:01:49.648Z,100434.64
2017-04-29T01:04:20.295Z,100436.83
2017-04-29T01:06:50.996Z,100432.78
2017-04-29T01:09:21.830Z,100430.51
2017-04-29T01:11:52.978Z,100433.08
2017-04-29T01:14:23.444Z,100426.99
2017-04-29T01:16:55.297Z,100428.92
2017-04-29T01:19:26.334Z,100426.81
2017-04-29T01:21:57.011Z,100430.03
2017-04-29T01:24:27.792Z,100427.27
2017-04-29T01:26:58.750Z,100421.95
2017-04-29T01:29:30.697Z,100424.61
2017-04-29T01:32:01.751Z,100425.70
2017-04-29T01:34:32.742Z,100434.20
2017-04-29T01:37:03.734Z,100434.92
2017-04-29T01:39:34.530Z,100443.11
2017-04-29T01:42:05.239Z,100442.36
2017-04-29T01:44:36.136Z,100446.98
2017-04-29T01:47:07.517Z,100448.95
2017-04-29T01:49:38.485Z,100452.41
2017-04-29T01:52:09.691Z,100449.34
2017-04-29T01:54:40.754Z,100448.05
2017-04-29T01:57:11.782Z,100450.66
2017-04-29T01:59:42.444Z,100445.44
2017-04-29T02:02:12.702Z,100454.89
2017-04-29T02:04:43.455Z,100455.52
2017-04-29T02:07:13.781Z,100458.81
2017-04-29T02:09:44.638Z,100469.07
2017-04-29T02:12:15.490Z,100467.75
2017-04-29T02:14:46.425Z,100466.41
2017-04-29T02:17:17.287Z,100470.69
2017-04-29T02:19:48.212Z,100479.95
2017-04-29T02:22:19.749Z,100471.42
2017-04-29T02:24:50.272Z,100479.06
2017-04-29T02:27:20.907Z,100484.55
2017-04-29T02:29:51.865Z,100478.70
2017-04-29T02:32:22.736Z,100483.90
2017-04-29T02:34:53.944Z,100478.70
2017-04-29T02:37:24.976Z,100477.60
2017-04-29T02:39:56.066Z,100480.68
2017-04-29T02:42:27.087Z,100490.30
2017-04-29T02:44:57.990Z,100483.41
2017-04-29T02:47:28.665Z,100489.86
2017-04-29T02:49:59.709Z,100495.09
2017-04-29T02:52:31.050Z,100494.05
2017-04-29T02:55:01.761Z,100497.98
2017-04-29T02:57:32.789Z,100495.73
2017-04-29T03:00:03.638Z,100500.08
2017-04-29T03:02:34.306Z,100502.06
2017-04-29T03:05:05.160Z,100499.47
2017-04-29T03:07:35.650Z,100502.94
2017-04-29T03:10:06.068Z,100505.19
2017-04-29T03:12:37.775Z,100505.41
2017-04-29T03:15:08.497Z,100506.72
2017-04-29T03:17:39.186Z,100511.84
2017-04-29T03:20:09.774Z,100513.39
2017-04-29T03:22:40.710Z,100508.52
2017-04-29T03:25:11.443Z,100512.52
2017-04-29T03:27:42.279Z,100507.58
2017-04-29T03:30:13.223Z,100507.08
2017-04-29T03:32:44.187Z,100517.66
2017-04-29T03:35:15.156Z,100511.97
2017-04-29T03:37:46.031Z,100512.20
2017-04-29T03:40:16.961Z,100514.70
2017-04-29T03:42:47.909Z,100516.42
2017-04-29T03:45:18.573Z,100516.42
2017-04-29T03:47:49.578Z,100516.99
2017-04-29T03:50:20.606Z,100530.16
2017-04-29T03:52:51.555Z,100517.98
2017-04-29T03:55:22.688Z,100520.34
2017-04-29T03:57:53.635Z,100516.36
2017-04-29T04:00:24.852Z,100520.12
2017-04-29T04:02:55.788Z,100519.69
2017-04-29T04:05:26.842Z,100521.16
2017-04-29T04:07:57.570Z,100528.87
2017-04-29T04:10:28.025Z,100529.86
2017-04-29T04:12:58.937Z,100538.13
2017-04-29T04:15:29.823Z,100536.38
2017-04-29T04:18:00.648Z,100545.52
2017-04-29T04:20:31.584Z,100551.20
2017-04-29T04:23:02.404Z,100546.41
2017-04-29T04:25:33.290Z,100546.97
2017-04-29T04:28:04.112Z,100551.63
2017-04-29T04:30:35.002Z,100555.11
2017-04-29T04:33:05.849Z,100555.08
2017-04-29T04:35:36.629Z,100559.88
2017-04-29T04:38:07.469Z,100556.05
2017-04-29T04:40:38.150Z,100554.86
2017-04-29T04:43:08.986Z,100552.70
2017-04-29T04:45:39.885Z,100557.31
2017-04-29T04:48:10.795Z,100563.73
2017-04-29T04:50:41.606Z,100560.80
2017-04-29T04:53:12.494Z,100569.69
2017-04-29T04:55:43.318Z,100570.89
2017-04-29T04:58:14.185Z,100577.31
2017-04-29T05:00:44.752Z,100573.19
2017-04-29T05:03:15.425Z,100573.56
2017-04-29T05:05:46.281Z,100575.17
2017-04-29T05:08:17.343Z,100577.67
2017-04-29T05:10:48.305Z,100577.78
2017-04-29T05:13:19.194Z,100576.98
2017-04-29T05:15:50.066Z,100577.33
2017-04-29T05:18:20.924Z,100573.94
2017-04-29T05:20:51.801Z,100580.16
2017-04-29T05:23:22.248Z,100584.95
2017-04-29T05:25:53.201Z,100584.75
2017-04-29T05:28:24.083Z,100585.95
2017-04-29T05:30:54.953Z,100584.99
2017-04-29T05:33:27.633Z,100587.13
2017-04-29T05:35:59.819Z,100590.17
2017-04-29T05:38:31.429Z,100590.97
2017-04-29T05:41:03.198Z,100591.83
2017-04-29T05:43:37.344Z,100593.55
2017-04-29T05:46:10.189Z,100592.82
2017-04-29T05:48:43.087Z,100598.23
2017-04-29T05:51:13.961Z,100598.89
2017-04-29T05:53:45.536Z,100605.43
2017-04-29T05:56:16.081Z,100606.44
2017-04-29T05:58:47.027Z,100612.08
2017-04-29T06:01:17.872Z,100609.87
2017-04-29T06:03:48.822Z,100611.51
2017-04-29T06:06:19.642Z,100613.48
2017-04-29T06:08:50.326Z,100616.78
2017-04-29T06:11:21.259Z,100621.85
2017-04-29T06:13:52.323Z,100619.19
2017-04-29T06:16:23.198Z,100616.53
2017-04-29T06:18:54.202Z,100612.48
2017-04-29T06:21:25.076Z,100620.69
2017-04-29T06:23:56.591Z,100622.86
2017-04-29T06:26:27.489Z,100625.39
2017-04-29T06:28:58.336Z,100624.84
2017-04-29T06:31:29.012Z,100616.73
2017-04-29T06:34:01.655Z,100624.49
2017-04-29T06:36:33.187Z,100629.14
2017-04-29T06:39:03.656Z,100629.44
2017-04-29T06:41:34.677Z,100628.59
2017-04-29T06:44:05.664Z,100630.87
2017-04-29T06:46:36.572Z,100633.42
2017-04-29T06:49:08.049Z,100633.98
2017-04-29T06:51:39.197Z,100639.25
2017-04-29T06:54:10.192Z,100635.92
2017-04-29T06:56:41.256Z,100632.84
2017-04-29T06:59:12.114Z,100636.63
2017-04-29T07:01:42.950Z,100633.53
2017-04-29T07:04:13.842Z,100632.30
2017-04-29T07:06:44.678Z,100633.80
2017-04-29T07:09:15.537Z,100633.56
2017-04-29T07:11:47.121Z,100635.56
2017-04-29T07:14:17.951Z,100640.11
2017-04-29T07:16:48.882Z,100644.99
2017-04-29T07:19:19.859Z,100652.59
2017-04-29T07:21:50.791Z,100645.45
2017-04-29T07:24:21.713Z,100650.49
2017-04-29T07:26:52.689Z,100656.09
2017-04-29T07:29:23.631Z,100650.73
2017-04-29T07:31:54.667Z,100657.98
2017-04-29T07:34:25.533Z,100655.89
2017-04-29T07:36:56.617Z,100660.36
2017-04-29T07:39:27.620Z,100660.48
2017-04-29T07:41:58.649Z,100659.59
2017-04-29T07:44:29.686Z,100656.02
2017-04-29T07:47:00.589Z,100667.02
2017-04-29T07:49:31.588Z,100669.11
2017-04-29T07:52:02.616Z,100676.50
2017-04-29T07:54:33.590Z,100668.63
2017-04-29T07:57:04.518Z,100676.41
2017-04-29T07:59:35.497Z,100672.47
2017-04-29T08:02:06.213Z,100670.84
2017-04-29T08:04:37.341Z,100669.41
2017-04-29T08:07:09.039Z,100668.38
2017-04-29T08:09:39.921Z,100667.41
2017-04-29T08:12:10.938Z,100666.77
2017-04-29T08:14:41.517Z,100674.17
2017-04-29T08:17:12.238Z,100674.62
2017-04-29T08:19:43.265Z,100678.77
2017-04-29T08:22:13.998Z,100671.13
2017-04-29T08:24:44.995Z,100686.78
2017-04-29T08:27:15.782Z,100697.70
2017-04-29T08:29:46.757Z,100708.89
2017-04-29T08:32:17.698Z,100717.00
2017-04-29T08:34:48.626Z,100732.77
2017-04-29T08:37:19.799Z,100727.86
2017-04-29T08:39:50.361Z,100735.55
2017-04-29T08:42:21.362Z,100734.17
2017-04-29T08:44:52.441Z,100736.54
2017-04-29T08:47:22.913Z,100729.42
2017-04-29T08:49:53.829Z,100723.83
2017-04-29T08:52:24.462Z,100725.69
2017-04-29T08:54:55.195Z,100721.37
2017-04-29T08:57:26.136Z,100719.36
2017-04-29T08:59:57.291Z,100718.52
2017-04-29T09:02:27.814Z,100714.92
2017-04-29T09:04:58.641Z,100715.77
2017-04-29T09:07:29.373Z,100711.69
2017-04-29T09:10:00.137Z,100714.63
2017-04-29T09:12:31.149Z,100714.70
2017-04-29T09:15:01.890Z,100712.31
2017-04-29T09:17:32.830Z,100713.14
2017-04-29T09:20:03.554Z,100717.02
2017-04-29T09:22:34.509Z,100709.92
2017-04-29T09:25:05.487Z,100713.65
2017-04-29T09:27:36.471Z,100705.28
2017-04-29T09:30:07.716Z,100710.55
2017-04-29T09:32:38.444Z,100710.23
2017-04-29T09:35:09.384Z,100700.59
2017-04-29T09:37:41.358Z,100704.27
2017-04-29T09:40:12.360Z,100705.75
2017-04-29T09:42:43.222Z,100701.30
2017-04-29T09:45:14.146Z,100701.41
2017-04-29T09:47:44.858Z,100704.17
2017-04-29T09:50:15.937Z,100692.58
2017-04-29T09:52:46.709Z,100688.44
2017-04-29T09:55:17.702Z,100697.16
2017-04-29T09:57:48.679Z,100694.42
2017-04-29T10:00:19.784Z,100696.20
2017-04-29T10:02:50.437Z,100701.52
2017-04-29T10:05:21.368Z,100709.13
2017-04-29T10:07:52.174Z,100720.85
2017-04-29T10:10:22.865Z,100708.40
2017-04-29T10:12:53.747Z,100710.32
2017-04-29T10:15:24.698Z,100707.44
2017-04-29T10:17:55.549Z,100709.14
2017-04-29T10:20:26.595Z,100713.75
2017-04-29T10:22:57.518Z,100720.52
2017-04-29T10:25:28.417Z,100723.30
2017-04-29T10:27:59.299Z,100720.32
2017-04-29T10:30:30.048Z,100717.09
2017-04-29T10:33:01.287Z,100714.97
2017-04-29T10:35:32.097Z,100711.89
2017-04-29T10:38:03.052Z,100710.22
2017-04-29T10:40:33.858Z,100715.13
2017-04-29T10:43:04.743Z,100716.47
2017-04-29T10:45:35.765Z,100707.10
2017-04-29T10:48:06.724Z,100705.39
2017-04-29T10:50:37.470Z,100701.19
2017-04-29T10:53:08.960Z,100701.52
2017-04-29T10:55:41.038Z,100698.27
2017-04-29T10:58:11.995Z,100699.61
2017-04-29T11:00:42.860Z,100695.09
2017-04-29T11:03:13.715Z,100702.47
2017-04-29T11:05:44.631Z,100706.38
2017-04-29T11:08:15.588Z,100695.29
2017-04-29T11:10:46.447Z,100697.02
2017-04-29T11:13:17.353Z,100706.52
2017-04-29T11:15:48.243Z,100701.04
2017-04-29T11:18:19.334Z,100698.26
2017-04-29T11:20:50.237Z,100686.80
2017-04-29T11:23:21.123Z,100690.03
2017-04-29T11:25:51.931Z,100687.18
2017-04-29T11:28:22.834Z,100689.22
2017-04-29T11:30:53.782Z,100696.98
2017-04-29T11:33:24.619Z,100706.45
2017-04-29T11:35:55.555Z,100710.38
2017-04-29T11:38:26.405Z,100710.14
2017-04-29T11:40:57.533Z,100705.00
2017-04-29T11:43:28.490Z,100701.96
2017-04-29T11:45:59.336Z,100704.46
2017-04-29T11:48:30.262Z,100713.97
2017-04-29T11:51:00.997Z,100709.86
2017-04-29T11:53:31.897Z,100699.84
2017-04-29T11:56:02.773Z,100709.06
2017-04-29T11:58:33.062Z,100699.30
2017-04-29T12:01:03.941Z,100706.02
2017-04-29T12:03:34.980Z,100699.89
2017-04-29T12:06:06.025Z,100708.57
2017-04-29T12:08:37.100Z,100700.35
2017-04-29T12:11:08.090Z,100705.20
2017-04-29T12:13:39.158Z,100707.49
2017-04-29T12:16:10.174Z,100706.64
2017-04-29T12:18:41.021Z,100701.54
2017-04-29T12:21:12.151Z,100691.83
2017-04-29T12:23:42.894Z,100697.22
2017-04-29T12:26:13.616Z,100704.38
2017-04-29T12:28:44.513Z,100706.64
2017-04-29T12:31:15.402Z,100704.19
2017-04-29T12:33:46.381Z,100700.11
2017-04-29T12:36:17.474Z,100704.99
2017-04-29T12:38:48.696Z,100700.38
2017-04-29T12:41:19.512Z,100701.61
2017-04-29T12:43:50.370Z,100705.61
2017-04-29T12:46:21.510Z,100696.47
2017-04-29T12:48:52.254Z,100697.20
2017-04-29T12:51:23.284Z,100701.36
2017-04-29T12:53:54.187Z,100695.09
2017-04-29T12:56:25.117Z,100691.07
2017-04-29T12:58:56.056Z,100701.02
2017-04-29T13:01:27.007Z,100698.50
2017-04-29T13:03:57.938Z,100707.53
2017-04-29T13:06:28.811Z,100699.20
2017-04-29T13:08:59.648Z,100695.74
2017-04-29T13:11:30.325Z,100702.47
2017-04-29T13:14:01.232Z,100711.05
2017-04-29T13:16:32.274Z,100701.85
2017-04-29T13:19:03.296Z,100706.78
2017-04-29T13:21:34.135Z,100705.36
2017-04-29T13:24:05.123Z,100705.34
2017-04-29T13:26:35.873Z,100702.69
2017-04-29T13:29:06.748Z,100703.06
2017-04-29T13:31:37.888Z,100693.11
2017-04-29T13:34:08.629Z,100698.78
2017-04-29T13:36:39.605Z,100696.41
2017-04-29T13:39:10.586Z,100692.47
2017-04-29T13:41:41.687Z,100696.48
2017-04-29T13:44:12.700Z,100698.83
2017-04-29T13:46:43.710Z,100700.66
2017-04-29T13:49:14.682Z,100705.41
2017-04-29T13:51:45.606Z,100699.84
2017-04-29T13:54:16.649Z,100702.00
2017-04-29T13:56:47.284Z,100715.16
2017-04-29T13:59:18.387Z,100706.38
2017-04-29T14:01:49.327Z,100708.03
2017-04-29T14:04:20.274Z,100717.18
2017-04-29T14:06:51.345Z,100722.70
2017-04-29T14:09:22.391Z,100720.75
2017-04-29T14:11:53.420Z,100718.49
2017-04-29T14:14:24.301Z,100719.78
2017-04-29T14:16:54.873Z,100706.87
2017-04-29T14:19:25.763Z,100708.83
2017-04-29T14:21:56.759Z,100714.55
2017-04-29T14:24:27.813Z,100709.59
2017-04-29T14:26:58.918Z,100709.22
2017-04-29T14:29:29.698Z,100704.56
2017-04-29T14:32:00.624Z,100708.17
2017-04-29T14:34:32.527Z,100710.58
2017-04-29T14:37:03.531Z,100713.53
2017-04-29T14:39:34.731Z,100708.10
2017-04-29T14:42:05.709Z,100714.89
2017-04-29T14:44:36.761Z,100711.02
2017-04-29T14:47:07.633Z,100709.30
2017-04-29T14:49:38.677Z,100716.22
2017-04-29T14:52:09.618Z,100716.37
2017-04-29T14:54:40.449Z,100714.92
2017-04-29T14:57:11.411Z,100714.72
2017-04-29T14:59:42.287Z,100719.14
2017-04-29T15:02:13.157Z,100712.94
2017-04-29T15:04:44.043Z,100708.64
2017-04-29T15:07:14.709Z,100714.09
2017-04-29T15:09:45.614Z,100708.72
2017-04-29T15:12:16.234Z,100711.33
2017-04-29T15:14:47.174Z,100708.39
2017-04-29T15:17:18.530Z,100713.88
2017-04-29T15:19:49.572Z,100713.23
2017-04-29T15:22:20.589Z,100712.23
2017-04-29T15:24:51.594Z,100717.25
2017-04-29T15:27:22.292Z,100716.61
2017-04-29T15:29:53.311Z,100719.70
2017-04-29T15:32:24.278Z,100721.81
2017-04-29T15:34:55.075Z,100717.81
2017-04-29T15:37:25.636Z,100725.06
2017-04-29T15:39:56.787Z,100730.38
2017-04-29T15:42:27.798Z,100729.63
2017-04-29T15:44:58.734Z,100724.50
2017-04-29T15:47:29.730Z,100722.51
2017-04-29T15:50:00.615Z,100727.25
2017-04-29T15:52:31.582Z,100735.72
2017-04-29T15:55:02.430Z,100730.94
2017-04-29T15:57:32.952Z,100723.45
2017-04-29T16:00:03.874Z,100722.41
2017-04-29T16:02:34.794Z,100724.33
2017-04-29T16:05:05.735Z,100730.68
2017-04-29T16:07:36.964Z,100732.94
2017-04-29T16:10:07.906Z,100727.44
2017-04-29T16:12:39.610Z,100729.78
2017-04-29T16:15:10.837Z,100726.84
2017-04-29T16:17:41.757Z,100725.97
2017-04-29T16:20:12.463Z,100730.21
2017-04-29T16:22:43.344Z,100728.77
2017-04-29T16:25:14.596Z,100735.66
2017-04-29T16:27:45.516Z,100729.52
2017-04-29T16:30:16.449Z,100733.00
2017-04-29T16:32:47.336Z,100734.02
2017-04-29T16:35:18.279Z,100740.59
2017-04-29T16:37:49.392Z,100734.58
2017-04-29T16:40:20.325Z,100739.54
2017-04-29T16:42:51.375Z,100734.28
2017-04-29T16:45:22.451Z,100736.27
2017-04-29T16:47:53.367Z,100739.38
2017-04-29T16:50:24.189Z,100737.34
2017-04-29T16:52:54.908Z,100732.41
2017-04-29T16:55:25.743Z,100731.63
2017-04-29T16:57:56.701Z,100730.31
2017-04-29T17:00:27.548Z,100732.34
2017-04-29T17:02:58.153Z,100731.38
2017-04-29T17:05:29.016Z,100734.68
2017-04-29T17:07:59.894Z,100730.16
2017-04-29T17:10:30.562Z,100729.87
2017-04-29T17:13:01.437Z,100730.75
2017-04-29T17:15:32.325Z,100736.84
2017-04-29T17:18:03.147Z,100739.19
2017-04-29T17:20:33.868Z,100736.44
2017-04-29T17:23:04.779Z,100739.98
2017-04-29T17:25:35.662Z,100749.42
2017-04-29T17:28:06.141Z,100741.41
2017-04-29T17:30:37.152Z,100741.43
2017-04-29T17:33:08.040Z,100743.31
2017-04-29T17:35:38.859Z,100750.11
2017-04-29T17:38:09.823Z,100756.83
2017-04-29T17:40:40.731Z,100750.74
2017-04-29T17:43:11.616Z,100754.00
2017-04-29T17:45:42.481Z,100751.73
2017-04-29T17:48:13.161Z,100752.33
2017-04-29T17:50:44.046Z,100751.45
2017-04-29T17:53:14.904Z,100754.38
2017-04-29T17:55:45.384Z,100749.36
2017-04-29T17:58:16.228Z,100750.28
2017-04-29T18:00:47.150Z,100760.13
2017-04-29T18:03:17.778Z,100761.45
2017-04-29T18:05:48.673Z,100769.47
2017-04-29T18:08:19.380Z,100761.12
2017-04-29T18:10:50.264Z,100770.81
2017-04-29T18:13:21.116Z,100776.57
2017-04-29T18:15:51.812Z,100773.45
2017-04-29T18:18:22.703Z,100774.89
2017-04-29T18:20:53.526Z,100789.61
2017-04-29T18:23:24.418Z,100783.12
2017-04-29T18:25:55.041Z,100790.69
2017-04-29T18:28:25.913Z,100795.24
2017-04-29T18:30:56.741Z,100797.48
2017-04-29T18:33:27.634Z,100804.09
2017-04-29T18:35:58.538Z,100797.38
2017-04-29T18:38:29.393Z,100802.38
2017-04-29T18:41:00.124Z,100808.57
2017-04-29T18:43:30.779Z,100807.33
2017-04-29T18:46:01.704Z,100810.08
2017-04-29T18:48:32.558Z,100817.70
2017-04-29T18:51:03.440Z,100813.47
2017-04-29T18:53:34.310Z,100815.39
2017-04-29T18:56:05.109Z,100815.57
2017-04-29T18:58:35.632Z,100822.81
2017-04-29T19:01:06.562Z,100828.70
2017-04-29T19:03:37.242Z,100830.94
2017-04-29T19:06:08.114Z,100830.60
2017-04-29T19:08:38.792Z,100831.59
2017-04-29T19:11:09.753Z,100826.34
2017-04-29T19:13:40.602Z,100827.77
2017-04-29T19:16:11.513Z,100828.88
2017-04-29T19:18:42.331Z,100828.70
2017-04-29T19:21:13.114Z,100834.13
2017-04-29T19:23:43.960Z,100830.87
2017-04-29T19:26:14.824Z,100831.97
2017-04-29T19:28:45.637Z,100836.11
2017-04-29T19:31:16.513Z,100835.27
2017-04-29T19:33:47.333Z,100840.42
2017-04-29T19:36:18.039Z,100850.42
2017-04-29T19:38:48.660Z,100852.09
2017-04-29T19:41:19.258Z,100854.22
2017-04-29T19:43:50.045Z,100856.11
2017-04-29T19:46:20.726Z,100855.56
2017-04-29T19:48:51.539Z,100853.80
2017-04-29T19:51:22.406Z,100863.18
2017-04-29T19:53:53.307Z,100866.19
2017-04-29T19:56:24.172Z,100864.63
2017-04-29T19:58:55.083Z,100864.86
2017-04-29T20:01:25.967Z,100867.58
2017-04-29T20:03:56.853Z,100871.78
2017-04-29T20:06:27.767Z,100862.98
2017-04-29T20:08:58.620Z,100858.72
2017-04-29T20:11:29.419Z,100867.04
2017-04-29T20:14:00.321Z,100868.62
2017-04-29T20:16:31.138Z,100865.39
2017-04-29T20:19:02.015Z,100868.28
2017-04-29T20:21:32.851Z,100873.55
2017-04-29T20:24:03.552Z,100871.03
2017-04-29T20:26:34.181Z,100869.75
2017-04-29T20:29:04.992Z,100876.45
2017-04-29T20:31:35.812Z,100879.55
2017-04-29T20:34:06.488Z,100885.25
2017-04-29T20:36:37.368Z,100886.95
2017-04-29T20:39:08.274Z,100892.20
2017-04-29T20:41:40.227Z,100888.36
2017-04-29T20:44:11.079Z,100897.80
2017-04-29T20:46:42.750Z,100892.76
2017-04-29T20:49:13.554Z,100888.46
2017-04-29T20:51:44.413Z,100896.12
2017-04-29T20:54:15.128Z,100891.30
2017-04-29T20:56:46.105Z,100897.05
2017-04-29T20:59:17.018Z,100901.06
2017-04-29T21:01:48.058Z,100895.33
2017-04-29T21:04:18.877Z,100892.60
2017-04-29T21:06:49.764Z,100895.53
2017-04-29T21:09:20.735Z,100904.39
2017-04-29T21:11:51.697Z,100907.84
2017-04-29T21:14:22.598Z,100910.29
2017-04-29T21:16:53.489Z,100907.33
2017-04-29T21:19:24.637Z,100906.63
2017-04-29T21:21:55.781Z,100906.69
2017-04-29T21:24:26.875Z,100909.65
2017-04-29T21:26:57.867Z,100915.83
2017-04-29T21:29:28.885Z,100909.52
2017-04-29T21:31:59.422Z,100908.91
2017-04-29T21:34:30.147Z,100916.52
2017-04-29T21:37:00.893Z,100907.03
2017-04-29T21:39:31.871Z,100912.48
2017-04-29T21:42:02.929Z,100909.52
2017-04-29T21:44:33.626Z,100907.06
2017-04-29T21:47:04.695Z,100910.16
2017-04-29T21:49:35.582Z,100905.75
2017-04-29T21:52:07.084Z,100910.75
2017-04-29T21:54:37.980Z,100912.78
2017-04-29T21:57:08.835Z,100910.58
2017-04-29T21:59:39.725Z,100915.64
2017-04-29T22:02:10.276Z,100919.75
2017-04-29T22:04:41.192Z,100924.10
2017-04-29T22:07:12.151Z,100917.71
2017-04-29T22:09:42.969Z,100922.43
2017-04-29T22:12:13.880Z,100920.77
2017-04-29T22:14:44.657Z,100930.72
2017-04-29T22:17:15.438Z,100924.47
2017-04-29T22:19:46.298Z,100926.59
2017-04-29T22:22:17.070Z,100931.69
2017-04-29T22:24:48.156Z,100928.63
2017-04-29T22:27:18.988Z,100930.81
2017-04-29T22:29:49.712Z,100928.69
2017-04-29T22:32:20.453Z,100928.77
2017-04-29T22:34:51.493Z,100926.58
2017-04-29T22:37:22.401Z,100928.87
2017-04-29T22:39:53.372Z,100922.74
2017-04-29T22:42:24.409Z,100936.33
2017-04-29T22:44:55.570Z,100933.94
2017-04-29T22:47:26.227Z,100933.19
2017-04-29T22:49:56.654Z,100935.50
2017-04-29T22:52:27.546Z,100943.34
2017-04-29T22:54:58.445Z,100937.03
2017-04-29T22:57:29.331Z,100937.09
2017-04-29T23:00:00.433Z,100939.83
2017-04-29T23:02:31.113Z,100927.81
2017-04-29T23:05:01.497Z,100939.94
2017-04-29T23:07:33.294Z,100946.01
2017-04-29T23:10:04.288Z,100935.30
2017-04-29T23:12:35.939Z,100937.17
2017-04-29T23:15:06.977Z,100939.21
2017-04-29T23:17:37.620Z,100941.85
2017-04-29T23:20:08.234Z,100935.05
2017-04-29T23:22:39.226Z,100931.63
2017-04-29T23:25:09.565Z,100933.70
2017-04-29T23:27:40.537Z,100936.22
2017-04-29T23:30:11.311Z,100934.48
2017-04-29T23:32:42.086Z,100932.75
2017-04-29T23:35:13.657Z,100935.57
2017-04-29T23:37:44.391Z,100934.41
2017-04-29T23:40:15.552Z,100933.45
2017-04-29T23:42:47.293Z,100924.69
2017-04-29T23:45:17.957Z,100927.07
2017-04-29T23:47:48.587Z,100921.13
2017-04-29T23:50:19.625Z,100922.91
2017-04-29T23:52:50.900Z,100920.27
2017-04-29T23:55:21.804Z,100920.73
2017-04-29T23:57:52.714Z,100927.59
